Time;durP1;ratioP1;P1;durP2;ratioP2;P2;SDS_P1;SDS_P2;PMS_P1;PMS_P2;Temp;Humidity;BMP_temperature;BMP_pressure;BME280_temperature;BME280_humidity;BME280_pressure;Samples;Min_cycle;Max_cycle;Signal;HPM_P1;HPM_P2
2023/08/07 00:02:42;;;;;;;9.63;6.83;;;;;;;;;;2615072;54;20354;-72
2023/08/07 00:08:11;;;;;;;6.47;4.77;;;;;;;;;;2615218;54;20387;-72
2023/08/07 00:13:41;;;;;;;8.60;6.30;;;;;;;;;;2614922;54;20382;-72
2023/08/07 00:28:41;;;;;;;9.63;4.97;;;;;;;;;;2613810;39;21298;-72
2023/08/07 00:34:10;;;;;;;6.33;4.87;;;;;;;;;;2613693;54;20544;-73
2023/08/07 00:39:39;;;;;;;12.90;3.83;;;;;;;;;;2613910;54;20391;-73
2023/08/07 00:45:09;;;;;;;13.70;4.63;;;;;;;;;;2613484;54;20955;-72
2023/08/07 00:50:39;;;;;;;6.77;4.70;;;;;;;;;;2613177;54;20390;-71
2023/08/07 00:56:08;;;;;;;9.33;5.03;;;;;;;;;;2613909;54;21114;-74
2023/08/07 01:01:38;;;;;;;14.47;5.13;;;;;;;;;;2614786;54;20346;-75
2023/08/07 01:07:08;;;;;;;6.10;4.30;;;;;;;;;;2616006;54;20487;-77
2023/08/07 01:24:42;;;;;;;13.77;6.43;;;;;;;;;;2615017;54;20363;-76
2023/08/07 01:30:21;;;;;;;8.57;6.30;;;;;;;;;;2614927;54;20350;-76
2023/08/07 01:35:52;;;;;;;12.03;6.77;;;;;;;;;;2615026;54;20447;-76
2023/08/07 01:41:22;;;;;;;12.57;6.60;;;;;;;;;;2615131;54;20921;-76
2023/08/07 01:46:51;;;;;;;16.60;7.50;;;;;;;;;;2615224;54;20953;-77
2023/08/07 01:52:21;;;;;;;15.50;8.67;;;;;;;;;;2615210;54;20390;-77
2023/08/07 01:57:51;;;;;;;11.90;8.63;;;;;;;;;;2615012;54;20398;-77
2023/08/07 02:03:20;;;;;;;9.47;7.30;;;;;;;;;;2616151;39;20755;-77
2023/08/07 02:08:50;;;;;;;12.57;7.17;;;;;;;;;;2615914;54;20450;-77
2023/08/07 02:14:20;;;;;;;9.77;6.67;;;;;;;;;;2615474;54;20375;-75
2023/08/07 02:19:50;;;;;;;14.20;7.17;;;;;;;;;;2615384;54;21031;-74
2023/08/07 02:25:19;;;;;;;10.60;6.50;;;;;;;;;;2615982;54;20931;-73
2023/08/07 02:30:51;;;;;;;8.10;6.37;;;;;;;;;;2615260;54;20515;-74
2023/08/07 02:36:20;;;;;;;8.03;4.70;;;;;;;;;;2615772;54;20414;-72
2023/08/07 02:41:49;;;;;;;6.07;3.53;;;;;;;;;;2615678;54;20354;-72
2023/08/07 02:47:19;;;;;;;5.37;4.17;;;;;;;;;;2615982;54;20483;-73
2023/08/07 02:52:49;;;;;;;6.20;3.30;;;;;;;;;;2615779;54;20398;-74
2023/08/07 02:58:19;;;;;;;4.43;2.40;;;;;;;;;;2615638;54;20387;-74
2023/08/07 03:03:48;;;;;;;6.93;2.93;;;;;;;;;;2615724;46;20419;-71
2023/08/07 03:09:18;;;;;;;6.73;2.87;;;;;;;;;;2615284;54;20503;-74
2023/08/07 03:14:47;;;;;;;3.80;1.90;;;;;;;;;;2615712;54;20519;-78
2023/08/07 03:23:55;;;;;;;6.30;2.23;;;;;;;;;;2616453;39;20800;-75
2023/08/07 03:29:24;;;;;;;4.97;2.33;;;;;;;;;;2615200;54;20436;-76
2023/08/07 03:34:53;;;;;;;7.00;4.63;;;;;;;;;;2615178;54;20398;-74
2023/08/07 03:40:23;;;;;;;10.73;4.03;;;;;;;;;;2615427;54;20381;-75
2023/08/07 03:45:59;;;;;;;8.63;4.73;;;;;;;;;;2615780;39;20747;-75
2023/08/07 03:51:29;;;;;;;13.83;6.73;;;;;;;;;;2615102;54;20978;-75
2023/08/07 03:56:59;;;;;;;15.70;6.80;;;;;;;;;;2615168;54;20391;-76
2023/08/07 04:02:30;;;;;;;15.93;4.77;;;;;;;;;;2615083;54;20492;-75
2023/08/07 04:07:59;;;;;;;9.23;5.97;;;;;;;;;;2615565;54;20472;-75
2023/08/07 04:13:29;;;;;;;20.73;9.27;;;;;;;;;;2615250;54;20407;-75
2023/08/07 04:18:59;;;;;;;17.17;10.23;;;;;;;;;;2615441;54;20965;-75
2023/08/07 04:24:28;;;;;;;16.43;8.77;;;;;;;;;;2613902;54;20492;-72
2023/08/07 04:29:58;;;;;;;17.60;9.67;;;;;;;;;;2614502;54;20387;-72
2023/08/07 04:35:27;;;;;;;19.07;7.27;;;;;;;;;;2615125;39;20594;-73
2023/08/07 04:40:57;;;;;;;18.17;7.17;;;;;;;;;;2615074;54;20415;-72
2023/08/07 04:46:27;;;;;;;12.90;7.63;;;;;;;;;;2615237;54;20403;-73
2023/08/07 04:51:56;;;;;;;15.70;8.10;;;;;;;;;;2614851;54;20354;-72
2023/08/07 04:57:26;;;;;;;15.33;9.43;;;;;;;;;;2614930;54;20371;-71
2023/08/07 05:02:55;;;;;;;14.43;7.00;;;;;;;;;;2615008;54;20439;-72
2023/08/07 05:08:25;;;;;;;16.80;8.70;;;;;;;;;;2614965;54;20395;-73
2023/08/07 05:13:55;;;;;;;15.07;7.13;;;;;;;;;;2615158;54;20430;-73
2023/08/07 05:19:24;;;;;;;20.73;6.63;;;;;;;;;;2614982;54;20439;-73
2023/08/07 05:24:54;;;;;;;7.20;4.93;;;;;;;;;;2614655;54;20917;-73
2023/08/07 05:30:24;;;;;;;10.03;6.60;;;;;;;;;;2614757;54;20462;-72
2023/08/07 05:35:55;;;;;;;13.20;8.57;;;;;;;;;;2614401;46;20409;-71
2023/08/07 05:41:24;;;;;;;9.40;5.97;;;;;;;;;;2614744;54;20367;-73
2023/08/07 05:44:09;;;;;;;10.53;6.67;;;;;;;;;;2615343;54;20502;-74
2023/08/07 05:46:35;;;;;;;17.03;5.50;;;;;;;;;;2614145;54;20953;-75
2023/08/07 05:52:05;;;;;;;10.80;5.60;;;;;;;;;;2614793;54;20427;-75
2023/08/07 05:57:35;;;;;;;11.73;6.43;;;;;;;;;;2614571;54;20414;-75
2023/08/07 06:03:05;;;;;;;11.23;6.93;;;;;;;;;;2614912;54;20917;-74
2023/08/07 06:08:34;;;;;;;11.33;8.07;;;;;;;;;;2614513;54;20953;-75
2023/08/07 06:14:04;;;;;;;11.93;10.40;;;;;;;;;;2614501;54;20932;-75
2023/08/07 06:19:34;;;;;;;14.07;9.93;;;;;;;;;;2614744;54;20406;-74
2023/08/07 06:25:05;;;;;;;13.60;8.70;;;;;;;;;;2614466;54;20375;-74
2023/08/07 06:30:35;;;;;;;18.10;11.93;;;;;;;;;;2614690;39;20778;-75
2023/08/07 06:36:04;;;;;;;16.37;10.67;;;;;;;;;;2614617;46;20414;-74
2023/08/07 06:41:34;;;;;;;10.10;8.33;;;;;;;;;;2614347;39;20723;-75
2023/08/07 06:47:03;;;;;;;13.43;9.20;;;;;;;;;;2614767;54;20382;-77
2023/08/07 06:52:33;;;;;;;9.50;7.40;;;;;;;;;;2615577;54;20436;-76
2023/08/07 06:58:03;;;;;;;8.40;5.73;;;;;;;;;;2615617;39;20782;-75
2023/08/07 07:03:32;;;;;;;10.40;6.37;;;;;;;;;;2615082;54;20386;-74
2023/08/07 07:09:02;;;;;;;11.37;9.13;;;;;;;;;;2615465;54;20483;-74
2023/08/07 07:14:33;;;;;;;11.90;8.37;;;;;;;;;;2615345;54;20382;-74
2023/08/07 07:26:10;;;;;;;15.20;9.67;;;;;;;;;;2616121;31;20807;-74
2023/08/07 07:31:40;;;;;;;11.10;7.50;;;;;;;;;;2614781;54;20366;-73
2023/08/07 07:37:10;;;;;;;12.20;8.87;;;;;;;;;;2614841;54;20358;-74
2023/08/07 07:42:39;;;;;;;9.87;6.80;;;;;;;;;;2614624;54;20886;-74
2023/08/07 07:48:09;;;;;;;10.10;7.27;;;;;;;;;;2615226;54;20430;-73
2023/08/07 07:53:38;;;;;;;10.90;6.80;;;;;;;;;;2615371;54;20349;-76
2023/08/07 07:59:08;;;;;;;10.93;6.40;;;;;;;;;;2615254;54;20399;-76
2023/08/07 08:04:39;;;;;;;10.60;5.83;;;;;;;;;;2614911;54;20941;-73
2023/08/07 08:10:09;;;;;;;6.53;4.43;;;;;;;;;;2615004;54;20391;-73
2023/08/07 08:15:38;;;;;;;9.80;4.37;;;;;;;;;;2615421;39;20448;-74
2023/08/07 08:24:49;;;;;;;8.87;4.90;;;;;;;;;;2614816;54;20399;-73
2023/08/07 08:30:19;;;;;;;10.77;4.27;;;;;;;;;;2614565;54;20418;-73
2023/08/07 08:35:48;;;;;;;9.60;3.43;;;;;;;;;;2615225;54;20422;-74
2023/08/07 08:41:18;;;;;;;7.77;4.20;;;;;;;;;;2615408;54;20455;-73
2023/08/07 08:46:53;;;;;;;8.70;4.70;;;;;;;;;;2614970;54;20922;-74
2023/08/07 08:52:22;;;;;;;12.13;6.17;;;;;;;;;;2614464;54;20362;-74
2023/08/07 08:57:53;;;;;;;10.97;4.50;;;;;;;;;;2614572;54;20459;-74
2023/08/07 09:03:24;;;;;;;13.77;4.77;;;;;;;;;;2615100;46;20414;-74
2023/08/07 09:08:54;;;;;;;9.23;4.93;;;;;;;;;;2614965;54;20366;-73
2023/08/07 09:14:27;;;;;;;6.60;3.77;;;;;;;;;;2614840;54;20362;-75
2023/08/07 09:19:56;;;;;;;8.83;5.13;;;;;;;;;;2615283;54;20358;-74
2023/08/07 09:25:33;;;;;;;9.80;4.90;;;;;;;;;;2614664;54;21035;-74
2023/08/07 09:31:02;;;;;;;9.83;4.80;;;;;;;;;;2614738;54;20933;-74
2023/08/07 09:36:32;;;;;;;10.10;4.40;;;;;;;;;;2615078;54;20962;-74
2023/08/07 09:42:01;;;;;;;7.70;3.83;;;;;;;;;;2615442;54;20960;-75
2023/08/07 09:47:31;;;;;;;11.63;3.60;;;;;;;;;;2615339;54;21021;-75
2023/08/07 09:53:01;;;;;;;10.43;3.70;;;;;;;;;;2615154;54;20343;-75
2023/08/07 09:58:31;;;;;;;10.57;3.40;;;;;;;;;;2615087;54;20380;-75
2023/08/07 10:04:01;;;;;;;5.00;2.70;;;;;;;;;;2614650;54;20385;-74
2023/08/07 10:09:32;;;;;;;7.50;4.80;;;;;;;;;;2614808;54;21026;-74
2023/08/07 10:15:02;;;;;;;9.87;4.00;;;;;;;;;;2614825;54;20399;-75
2023/08/07 10:20:31;;;;;;;7.17;3.80;;;;;;;;;;2614638;54;20395;-75
2023/08/07 10:29:35;;;;;;;8.57;3.80;;;;;;;;;;2617063;54;20442;-76
2023/08/07 10:35:05;;;;;;;14.40;4.10;;;;;;;;;;2618410;39;20750;-76
2023/08/07 10:40:34;;;;;;;9.20;4.10;;;;;;;;;;2616144;39;20742;-77
2023/08/07 10:46:05;;;;;;;13.53;4.83;;;;;;;;;;2615653;46;20512;-77
2023/08/07 10:51:36;;;;;;;11.27;4.20;;;;;;;;;;2615517;54;20414;-78
2023/08/07 10:57:10;;;;;;;9.77;4.37;;;;;;;;;;2616009;54;20406;-78
2023/08/07 11:02:42;;;;;;;7.10;4.47;;;;;;;;;;2615686;54;20379;-77
2023/08/07 11:08:12;;;;;;;3.90;2.70;;;;;;;;;;2616785;31;20816;-78
2023/08/07 11:13:41;;;;;;;6.93;4.03;;;;;;;;;;2615712;54;21327;-77
2023/08/07 11:19:12;;;;;;;4.33;3.93;;;;;;;;;;2615650;54;20957;-76
2023/08/07 11:24:42;;;;;;;11.40;5.40;;;;;;;;;;2615403;54;20386;-77
2023/08/07 11:30:12;;;;;;;7.97;4.57;;;;;;;;;;2615677;54;20354;-77
2023/08/07 11:35:45;;;;;;;9.47;4.40;;;;;;;;;;2615260;54;20394;-78
2023/08/07 11:41:16;;;;;;;11.93;4.23;;;;;;;;;;2615957;39;21225;-77
2023/08/07 11:46:45;;;;;;;15.17;4.97;;;;;;;;;;2615861;54;20363;-76
2023/08/07 11:52:16;;;;;;;7.20;5.03;;;;;;;;;;2615732;54;20387;-76
2023/08/07 11:57:49;;;;;;;5.57;4.97;;;;;;;;;;2615790;54;20423;-78
2023/08/07 12:03:29;;;;;;;6.20;5.43;;;;;;;;;;2615701;54;20438;-76
2023/08/07 12:08:59;;;;;;;5.67;5.00;;;;;;;;;;2615886;54;20941;-77
2023/08/07 12:14:30;;;;;;;7.23;5.67;;;;;;;;;;2615625;54;20390;-76
2023/08/07 12:20:00;;;;;;;4.77;4.27;;;;;;;;;;2615671;54;20394;-78
2023/08/07 12:31:37;;;;;;;6.17;5.57;;;;;;;;;;2615883;54;20495;-78
2023/08/07 12:37:07;;;;;;;6.53;5.80;;;;;;;;;;2616036;54;20519;-77
2023/08/07 12:42:36;;;;;;;5.60;5.20;;;;;;;;;;2615849;54;20386;-76
2023/08/07 12:48:06;;;;;;;8.90;5.80;;;;;;;;;;2616052;54;20403;-77
2023/08/07 12:53:36;;;;;;;6.50;5.80;;;;;;;;;;2615968;54;20386;-76
2023/08/07 12:59:06;;;;;;;7.57;5.83;;;;;;;;;;2615663;39;20826;-75
2023/08/07 13:04:35;;;;;;;9.13;7.03;;;;;;;;;;2615016;54;20988;-75
2023/08/07 13:10:09;;;;;;;7.23;5.80;;;;;;;;;;2615520;54;20395;-74
2023/08/07 13:15:39;;;;;;;10.37;6.60;;;;;;;;;;2616222;54;20386;-73
2023/08/07 13:21:09;;;;;;;7.50;5.80;;;;;;;;;;2615859;54;20451;-73
2023/08/07 13:30:11;;;;;;;7.47;6.13;;;;;;;;;;2615373;54;20439;-72
2023/08/07 13:35:40;;;;;;;8.93;5.50;;;;;;;;;;2615654;54;20933;-74
2023/08/07 13:41:11;;;;;;;6.50;5.93;;;;;;;;;;2615667;54;20499;-73
2023/08/07 13:46:41;;;;;;;8.83;6.97;;;;;;;;;;2615759;54;20825;-73
2023/08/07 13:52:11;;;;;;;10.00;7.40;;;;;;;;;;2616028;39;20746;-72
2023/08/07 13:57:40;;;;;;;8.33;7.50;;;;;;;;;;2615715;54;20430;-72
2023/08/07 14:03:12;;;;;;;6.60;6.10;;;;;;;;;;2615331;54;20491;-73
2023/08/07 14:08:41;;;;;;;6.20;5.70;;;;;;;;;;2615344;39;20740;-72
2023/08/07 14:14:11;;;;;;;7.67;6.93;;;;;;;;;;2615524;54;20439;-72
2023/08/07 14:19:41;;;;;;;7.00;6.50;;;;;;;;;;2615489;54;20383;-73
2023/08/07 14:25:10;;;;;;;6.40;5.90;;;;;;;;;;2615247;54;20383;-73
2023/08/07 14:36:47;;;;;;;6.47;6.03;;;;;;;;;;2615989;54;20426;-72
2023/08/07 14:39:17;;;;;;;7.40;5.50;;;;;;;;;;2615312;47;20439;-73
2023/08/07 14:44:46;;;;;;;7.70;5.77;;;;;;;;;;2615829;39;20430;-73
2023/08/07 14:50:16;;;;;;;14.33;8.07;;;;;;;;;;2615606;54;20390;-72
2023/08/07 14:55:46;;;;;;;7.70;6.30;;;;;;;;;;2615218;54;20387;-74
2023/08/07 15:01:15;;;;;;;6.50;6.10;;;;;;;;;;2615161;54;20388;-74
2023/08/07 15:06:48;;;;;;;6.27;5.87;;;;;;;;;;2615685;54;20366;-72
2023/08/07 15:12:17;;;;;;;8.33;7.30;;;;;;;;;;2616891;46;20847;-72
2023/08/07 15:17:47;;;;;;;6.27;5.67;;;;;;;;;;2616522;54;20470;-74
2023/08/07 15:23:16;;;;;;;6.93;6.47;;;;;;;;;;2615901;39;20769;-75
2023/08/07 15:28:46;;;;;;;7.23;6.53;;;;;;;;;;2615801;54;20367;-73
2023/08/07 15:34:16;;;;;;;8.67;6.30;;;;;;;;;;2615697;54;20447;-74
2023/08/07 15:39:45;;;;;;;7.10;6.50;;;;;;;;;;2616011;54;20474;-74
2023/08/07 15:45:15;;;;;;;10.43;6.80;;;;;;;;;;2615734;54;20426;-75
2023/08/07 15:50:44;;;;;;;5.77;5.43;;;;;;;;;;2616157;54;20407;-74
2023/08/07 15:56:14;;;;;;;6.60;5.97;;;;;;;;;;2615857;54;20358;-74
2023/08/07 16:01:44;;;;;;;7.80;6.50;;;;;;;;;;2615436;54;20359;-74
2023/08/07 16:07:13;;;;;;;6.70;6.10;;;;;;;;;;2615654;39;20656;-75
2023/08/07 16:12:43;;;;;;;7.60;7.00;;;;;;;;;;2617085;54;20503;-75
2023/08/07 16:18:13;;;;;;;7.20;6.60;;;;;;;;;;2616933;54;20407;-75
2023/08/07 16:23:42;;;;;;;6.40;5.90;;;;;;;;;;2616956;54;20402;-75
2023/08/07 16:29:12;;;;;;;7.03;6.43;;;;;;;;;;2615526;54;20376;-73
2023/08/07 16:34:42;;;;;;;6.90;6.37;;;;;;;;;;2615134;54;20482;-73
2023/08/07 16:43:49;;;;;;;6.83;6.23;;;;;;;;;;2615535;54;20406;-74
2023/08/07 16:49:18;;;;;;;6.10;5.60;;;;;;;;;;2615232;54;20382;-74
2023/08/07 16:54:49;;;;;;;6.10;5.47;;;;;;;;;;2615533;54;20371;-75
2023/08/07 17:00:19;;;;;;;6.53;5.93;;;;;;;;;;2615117;54;20370;-74
2023/08/07 17:05:48;;;;;;;5.37;4.97;;;;;;;;;;2615698;39;20545;-74
2023/08/07 17:11:19;;;;;;;10.03;6.23;;;;;;;;;;2615193;54;20375;-74
2023/08/07 17:16:49;;;;;;;8.70;6.53;;;;;;;;;;2615021;54;20368;-76
2023/08/07 17:22:18;;;;;;;7.63;6.93;;;;;;;;;;2616577;54;20387;-76
2023/08/07 17:27:48;;;;;;;8.00;6.70;;;;;;;;;;2616761;54;20364;-77
2023/08/07 17:33:18;;;;;;;6.80;6.23;;;;;;;;;;2616390;54;20366;-76
2023/08/07 17:38:47;;;;;;;6.00;5.60;;;;;;;;;;2615903;54;20363;-73
2023/08/07 17:44:17;;;;;;;9.40;6.50;;;;;;;;;;2615398;54;20462;-73
2023/08/07 17:49:46;;;;;;;9.37;6.00;;;;;;;;;;2615610;46;20383;-72
2023/08/07 17:55:16;;;;;;;7.33;5.77;;;;;;;;;;2615801;54;20362;-73
2023/08/07 18:00:46;;;;;;;5.67;5.17;;;;;;;;;;2615479;54;20378;-73
2023/08/07 18:06:16;;;;;;;5.70;5.30;;;;;;;;;;2615412;54;20502;-73
2023/08/07 18:11:45;;;;;;;5.40;5.10;;;;;;;;;;2615352;54;20475;-71
2023/08/07 18:17:15;;;;;;;6.07;5.57;;;;;;;;;;2615393;54;20394;-72
2023/08/07 18:22:45;;;;;;;5.80;5.40;;;;;;;;;;2614846;54;20383;-72
2023/08/07 18:28:14;;;;;;;5.53;5.10;;;;;;;;;;2615426;54;20474;-74
2023/08/07 18:33:44;;;;;;;5.80;5.40;;;;;;;;;;2615339;39;20777;-73
2023/08/07 18:39:16;;;;;;;5.40;5.00;;;;;;;;;;2615225;39;20770;-73
2023/08/07 18:48:23;;;;;;;7.20;4.90;;;;;;;;;;2615589;54;20387;-72
2023/08/07 18:53:53;;;;;;;8.70;4.87;;;;;;;;;;2615856;54;20394;-72
2023/08/07 18:59:22;;;;;;;4.73;4.33;;;;;;;;;;2615917;54;20411;-72
2023/08/07 19:04:52;;;;;;;5.63;4.50;;;;;;;;;;2615884;54;20379;-72
2023/08/07 19:10:22;;;;;;;6.00;5.40;;;;;;;;;;2615587;54;20393;-71
2023/08/07 19:15:51;;;;;;;5.00;4.50;;;;;;;;;;2615892;54;20346;-72
2023/08/07 19:21:21;;;;;;;7.03;4.43;;;;;;;;;;2615933;54;20390;-73
2023/08/07 19:26:51;;;;;;;3.93;3.63;;;;;;;;;;2615727;54;20386;-74
2023/08/07 19:32:20;;;;;;;6.03;5.53;;;;;;;;;;2615089;54;20370;-74
2023/08/07 19:37:50;;;;;;;4.97;4.57;;;;;;;;;;2615255;54;20387;-75
2023/08/07 19:43:19;;;;;;;6.90;4.10;;;;;;;;;;2615609;54;20390;-74
2023/08/07 19:48:49;;;;;;;7.87;4.47;;;;;;;;;;2615179;54;20462;-74
2023/08/07 19:54:19;;;;;;;4.63;4.23;;;;;;;;;;2614745;54;20417;-74
2023/08/07 19:59:49;;;;;;;5.50;3.90;;;;;;;;;;2616157;39;20721;-74
2023/08/07 20:05:19;;;;;;;6.87;4.30;;;;;;;;;;2615649;54;20451;-76
2023/08/07 20:10:48;;;;;;;6.27;4.50;;;;;;;;;;2615360;54;20387;-75
2023/08/07 20:16:18;;;;;;;10.73;8.07;;;;;;;;;;2615626;54;20359;-75
2023/08/07 20:21:49;;;;;;;13.10;8.80;;;;;;;;;;2615825;39;20760;-75
2023/08/07 20:27:19;;;;;;;6.03;5.43;;;;;;;;;;2615243;54;20475;-76
2023/08/07 20:32:49;;;;;;;5.73;5.07;;;;;;;;;;2615053;54;20508;-76
2023/08/07 20:38:18;;;;;;;5.03;4.00;;;;;;;;;;2615101;54;20378;-75
2023/08/07 20:43:48;;;;;;;9.00;4.97;;;;;;;;;;2615555;54;20427;-75
2023/08/07 20:49:37;;;;;;;5.60;4.33;;;;;;;;;;2616634;54;20980;-75
2023/08/07 20:55:07;;;;;;;4.50;4.10;;;;;;;;;;2617284;54;20383;-75
2023/08/07 21:00:36;;;;;;;8.47;4.37;;;;;;;;;;2617173;54;20468;-76
2023/08/07 21:06:06;;;;;;;5.80;4.83;;;;;;;;;;2616942;54;20427;-76
2023/08/07 21:11:35;;;;;;;6.00;3.97;;;;;;;;;;2614675;54;20394;-74
2023/08/07 21:17:06;;;;;;;5.03;4.10;;;;;;;;;;2615535;39;20780;-75
2023/08/07 21:22:36;;;;;;;4.80;4.20;;;;;;;;;;2615305;54;20359;-75
2023/08/07 21:28:06;;;;;;;7.67;4.37;;;;;;;;;;2614900;54;20419;-74
2023/08/07 21:33:36;;;;;;;8.60;4.37;;;;;;;;;;2614750;54;20427;-75
2023/08/07 21:39:06;;;;;;;5.57;4.80;;;;;;;;;;2615066;54;20471;-74
2023/08/07 21:44:35;;;;;;;5.57;4.30;;;;;;;;;;2614741;54;20391;-74
2023/08/07 21:53:46;;;;;;;5.03;4.27;;;;;;;;;;2614850;54;20371;-75
2023/08/07 21:59:16;;;;;;;4.90;3.63;;;;;;;;;;2615297;54;20391;-75
2023/08/07 22:04:45;;;;;;;6.53;4.57;;;;;;;;;;2615322;54;20387;-74
2023/08/07 22:10:16;;;;;;;5.70;4.20;;;;;;;;;;2615675;39;20868;-74
2023/08/07 22:15:45;;;;;;;7.20;4.10;;;;;;;;;;2615108;54;20415;-74
2023/08/07 22:21:15;;;;;;;8.17;4.40;;;;;;;;;;2615771;54;20386;-73
2023/08/07 22:26:45;;;;;;;5.57;3.23;;;;;;;;;;2615858;54;20346;-75
2023/08/07 22:32:14;;;;;;;4.97;4.30;;;;;;;;;;2615616;54;20968;-75
2023/08/07 22:37:44;;;;;;;5.00;3.50;;;;;;;;;;2616166;54;20403;-74
2023/08/07 22:43:13;;;;;;;9.90;4.67;;;;;;;;;;2615623;54;20353;-75
2023/08/07 22:48:43;;;;;;;8.13;4.93;;;;;;;;;;2615653;54;20422;-75
2023/08/07 22:54:13;;;;;;;11.40;4.50;;;;;;;;;;2615657;54;20445;-75
2023/08/07 22:59:43;;;;;;;4.63;3.53;;;;;;;;;;2615810;54;20452;-74
2023/08/07 23:05:12;;;;;;;5.27;3.73;;;;;;;;;;2616058;54;20391;-75
2023/08/07 23:10:42;;;;;;;4.20;3.80;;;;;;;;;;2615679;54;20358;-74
2023/08/07 23:16:12;;;;;;;4.40;4.00;;;;;;;;;;2616037;39;20765;-75
2023/08/07 23:21:42;;;;;;;5.07;3.90;;;;;;;;;;2615190;54;20901;-75
2023/08/07 23:27:12;;;;;;;6.13;4.07;;;;;;;;;;2615413;54;20410;-75
2023/08/07 23:32:41;;;;;;;6.03;4.03;;;;;;;;;;2615210;54;20407;-75
2023/08/07 23:38:11;;;;;;;5.17;3.93;;;;;;;;;;2615829;54;20367;-74
2023/08/07 23:43:41;;;;;;;4.60;4.00;;;;;;;;;;2615211;54;20407;-74
2023/08/07 23:49:10;;;;;;;5.47;3.53;;;;;;;;;;2615436;54;20403;-74
2023/08/07 23:58:20;;;;;;;4.60;3.37;;;;;;;;;;2617303;54;20407;-75
